Map

Track Data

SID SEASON NUMBER BASIN SUBBASIN NAME ISO_TIME NATURE LAT LON WMO_WIND WMO_PRES WMO_AGENCY TRACK_TYPE DIST2LAND LANDFALL IFLAG USA_AGENCY USA_ATCF_ID USA_LAT USA_LON USA_RECORD USA_STATUS USA_WIND USA_PRES USA_SSHS USA_R34_NE USA_R34_SE USA_R34_SW USA_R34_NW USA_R50_NE USA_R50_SE USA_R50_SW USA_R50_NW USA_R64_NE USA_R64_SE USA_R64_SW USA_R64_NW USA_POCI USA_ROCI USA_RMW USA_EYE TOKYO_LAT TOKYO_LON TOKYO_GRADE TOKYO_WIND TOKYO_PRES TOKYO_R50_DIR TOKYO_R50_LONG TOKYO_R50_SHORT TOKYO_R30_DIR TOKYO_R30_LONG TOKYO_R30_SHORT TOKYO_LAND CMA_LAT CMA_LON CMA_CAT CMA_WIND CMA_PRES HKO_LAT HKO_LON HKO_CAT HKO_WIND HKO_PRES NEWDELHI_LAT NEWDELHI_LON NEWDELHI_GRADE NEWDELHI_WIND NEWDELHI_PRES NEWDELHI_CI NEWDELHI_DP NEWDELHI_POCI REUNION_LAT REUNION_LON REUNION_TYPE REUNION_WIND REUNION_PRES REUNION_TNUM REUNION_CI REUNION_RMW REUNION_R34_NE REUNION_R34_SE REUNION_R34_SW REUNION_R34_NW REUNION_R50_NE REUNION_R50_SE REUNION_R50_SW REUNION_R50_NW REUNION_R64_NE REUNION_R64_SE REUNION_R64_SW REUNION_R64_NW BOM_LAT BOM_LON BOM_TYPE BOM_WIND BOM_PRES BOM_TNUM BOM_CI BOM_RMW BOM_R34_NE BOM_R34_SE BOM_R34_SW BOM_R34_NW BOM_R50_NE BOM_R50_SE BOM_R50_SW BOM_R50_NW BOM_R64_NE BOM_R64_SE BOM_R64_SW BOM_R64_NW BOM_ROCI BOM_POCI BOM_EYE BOM_POS_METHOD BOM_PRES_METHOD NADI_LAT NADI_LON NADI_CAT NADI_WIND NADI_PRES WELLINGTON_LAT WELLINGTON_LON WELLINGTON_WIND WELLINGTON_PRES DS824_LAT DS824_LON DS824_STAGE DS824_WIND DS824_PRES TD9636_LAT TD9636_LON TD9636_STAGE TD9636_WIND TD9636_PRES TD9635_LAT TD9635_LON TD9635_WIND TD9635_PRES TD9635_ROCI NEUMANN_LAT NEUMANN_LON NEUMANN_CLASS NEUMANN_WIND NEUMANN_PRES MLC_LAT MLC_LON MLC_CLASS MLC_WIND MLC_PRES USA_GUST BOM_GUST BOM_GUST_PER REUNION_GUST REUNION_GUST_PER USA_SEAHGT USA_SEARAD_NE USA_SEARAD_SE USA_SEARAD_SW USA_SEARAD_NW STORM_SPEED STORM_DIR
1993083S12181 1993 22 SP MM PREMA 1993-03-24 00:00:00 TS -12.2000 181.300 main 472 463 O___________O_ jtwc_sh SH231993 -12.2000 -178.700 20 -1 -12.2000 -178.700 TC 20 6 270
1993083S12181 1993 22 SP MM PREMA 1993-03-24 03:00:00 TS -12.2001 181.000 main 463 456 P___________P_ SH231993 -12.2001 -179.000 20 -1 -12.2001 -179.000 TC 20 6 270
1993083S12181 1993 22 SP MM PREMA 1993-03-24 06:00:00 TS -12.2000 180.700 main 456 451 O___________O_ jtwc_sh SH231993 -12.2000 -179.300 20 -1 -12.2000 -179.300 TC 20 6 270
1993083S12181 1993 22 SP MM PREMA 1993-03-24 09:00:00 TS -12.2000 180.400 main 451 448 P___________P_ SH231993 -12.2000 -179.600 20 -1 -12.2000 -179.600 TC 20 6 270
1993083S12181 1993 22 SP MM PREMA 1993-03-24 12:00:00 TS -12.2000 180.100 main 448 447 O___________O_ jtwc_sh SH231993 -12.2000 -179.900 20 -1 -12.2000 -179.900 TC 20 6 270
1993083S12181 1993 22 SP MM PREMA 1993-03-24 15:00:00 TS -12.1999 179.808 main 447 447 P___________P_ SH231993 -12.1999 179.808 20 -1 -12.1999 179.808 TC 20 6 270
1993083S12181 1993 22 SP MM PREMA 1993-03-24 18:00:00 TS -12.2000 179.500 main 448 448 O___________O_ jtwc_sh SH231993 -12.2000 179.500 20 -1 -12.2000 179.500 TC 20 6 270
1993083S12181 1993 22 SP MM PREMA 1993-03-24 21:00:00 TS -12.1999 179.173 main 452 452 P___________P_ SH231993 -12.1999 179.173 20 -1 -12.1999 179.173 TC 20 7 270
1993083S12181 1993 22 SP MM PREMA 1993-03-25 00:00:00 TS -12.2000 178.800 main 460 460 O___________O_ jtwc_sh SH231993 -12.2000 178.800 20 -1 -12.2000 178.800 TC 20 8 269
1993083S12181 1993 22 SP MM PREMA 1993-03-25 03:00:00 TS -12.2075 178.373 main 472 472 P___________P_ SH231993 -12.2075 178.373 22 -1 -12.2075 178.373 TC 22 9 270
1993083S12181 1993 22 SP MM PREMA 1993-03-25 06:00:00 TS -12.2000 177.900 main 490 490 O___________O_ jtwc_sh SH231993 -12.2000 177.900 25 -1 -12.2000 177.900 TC 25 9 273
1993083S12181 1993 22 SP MM PREMA 1993-03-25 09:00:00 TS -12.1649 177.415 main 511 511 P___________P_ SH231993 -12.1649 177.415 25 -1 -12.1649 177.415 TC 25 10 276
1993083S12181 1993 22 SP MM PREMA 1993-03-25 12:00:00 TS -12.1000 176.900 main 542 542 O___________O_ jtwc_sh SH231993 -12.1000 176.900 25 -1 -12.1000 176.900 TC 25 10 279
1993083S12181 1993 22 SP MM PREMA 1993-03-25 15:00:00 TS -11.9999 176.357 main 572 572 P___________P_ SH231993 -11.9999 176.357 25 -1 -11.9999 176.357 TC 25 11 281
1993083S12181 1993 22 SP MM PREMA 1993-03-25 18:00:00 TS -11.9000 175.800 main 611 611 O___________O_ jtwc_sh SH231993 -11.9000 175.800 25 -1 -11.9000 175.800 TC 25 11 279
1993083S12181 1993 22 SP MM PREMA 1993-03-25 21:00:00 TS -11.8199 175.250 main 653 653 P___________P_ SH231993 -11.8199 175.250 25 -1 -11.8199 175.250 TC 25 11 275
1993083S12181 1993 22 SP MM PREMA 1993-03-26 00:00:00 TS -11.8000 174.700 main 684 684 O___________O_ jtwc_sh SH231993 -11.8000 174.700 25 -1 -11.8000 174.700 TC 25 11 269
1993083S12181 1993 22 SP MM PREMA 1993-03-26 03:00:00 TS -11.8475 174.127 main 725 716 P___________P_ SH231993 -11.8475 174.127 25 -1 -11.8475 174.127 TC 25 11 261
1993083S12181 1993 22 SP MM PREMA 1993-03-26 06:00:00 TS -11.9778 173.556 main 744 720 O_______O___O_ jtwc_sh SH231993 -12.0000 173.600 25 -1 -11.8000 173.200 25 999 -12.0000 173.600 TC 25 11 248
1993083S12181 1993 22 SP MM PREMA 1993-03-26 09:00:00 TS -12.2590 173.089 main 715 661 P_______P___P_ SH231993 -12.2624 173.155 25 -1 -12.2452 172.823 25 999 -12.2624 173.155 TC 25 10 232
1993083S12181 1993 22 SP MM PREMA 1993-03-26 12:00:00 TS -12.6273 172.718 main 661 614 O_______O___O_ jtwc_sh SH231993 -12.6000 172.800 25 -1 -12.7000 172.500 25 999 -12.6000 172.800 TC 25 10 220
1993083S12181 1993 22 SP MM PREMA 1993-03-26 15:00:00 TS -13.0274 172.432 main 614 573 P_______P___P_ SH231993 -12.9649 172.512 25 -1 -13.1524 172.270 27 998 -12.9649 172.512 TC 25 9 213
1993083S12181 1993 22 SP MM PREMA 1993-03-26 18:00:00 TS -13.3667 172.233 main 573 552 O_______O___O_ jtwc_sh SH231993 -13.3000 172.300 25 -1 -13.5000 172.100 30 997 -13.3000 172.300 TC 25 6 214
1993083S12181 1993 22 SP MM PREMA 1993-03-26 21:00:00 TS -13.5608 172.063 main 552 527 P_______P___P_ SH231993 -13.5300 172.127 27 -1 -13.6225 171.935 32 996 -13.5300 172.127 TC 27 4 221
1993083S12181 1993 22 SP MM PREMA 1993-03-27 00:00:00 TS -13.7000 171.933 main 527 506 O_______O___O_ jtwc_sh SH231993 -13.7000 172.000 30 -1 -13.7000 171.800 35 995 -13.7000 172.000 TC 30 4 215
1993083S12181 1993 22 SP MM PREMA 1993-03-27 03:00:00 TS -13.8883 171.831 main 506 485 P_______P___P_ SH231993 -13.8575 171.900 32 -1 -13.9500 171.693 37 992 -13.8575 171.900 TC 32 4 208
1993083S12181 1993 22 SP MM PREMA 1993-03-27 06:00:00 TS -14.0667 171.733 main 485 470 O_______O___O_ jtwc_sh SH231993 -14.0000 171.800 35 0 -14.2000 171.600 40 990 -14.0000 171.800 TC 35 4 215
1993083S12181 1993 22 SP MM PREMA 1993-03-27 09:00:00 TS -14.2100 171.597 main 470 455 P_______P___P_ SH231993 -14.1500 171.650 37 0 -14.3300 171.492 42 988 -14.1500 171.650 TC 37 4 224
1993083S12181 1993 22 SP MM PREMA 1993-03-27 12:00:00 TS -14.3333 171.467 main 455 440 O_______O___O_ jtwc_sh SH231993 -14.3000 171.500 40 0 -14.4000 171.400 45 987 -14.3000 171.500 TC 40 3 221
1993083S12181 1993 22 SP MM PREMA 1993-03-27 15:00:00 TS -14.4475 171.383 main 440 420 P_______P___P_ SH231993 -14.4500 171.400 45 0 -14.4425 171.350 47 986 -14.4500 171.400 TC 45 3 215
1993083S12181 1993 22 SP MM PREMA 1993-03-27 18:00:00 TS -14.5667 171.300 main 420 406 O_______O___O_ jtwc_sh SH231993 -14.6000 171.300 50 0 -14.5000 171.300 50 985 -14.6000 171.300 TC 50 3 218
1993083S12181 1993 22 SP MM PREMA 1993-03-27 21:00:00 TS -14.7117 171.174 main 406 376 P_______P___P_ SH231993 -14.7500 171.158 55 0 -14.6350 171.208 55 980 -14.7500 171.158 TC 55 4 220
1993083S12181 1993 22 SP MM PREMA 1993-03-28 00:00:00 TS -14.8667 171.033 main 376 362 O_______O___O_ jtwc_sh SH231993 -14.9000 171.000 60 0 -14.8000 171.100 60 975 -14.9000 171.000 TC 60 4 219
1993083S12181 1993 22 SP MM PREMA 1993-03-28 03:00:00 TS -15.0216 170.910 main 362 343 P_______P___P_ SH231993 -15.0575 170.857 67 1 -14.9500 171.015 62 972 -15.0575 170.857 TC 67 4 220
1993083S12181 1993 22 SP MM PREMA 1993-03-28 06:00:00 TS -15.1667 170.767 main 343 319 O_______O___O_ jtwc_sh SH231993 -15.2000 170.700 75 1 -15.1000 170.900 65 970 -15.2000 170.700 TC 75 4 229
1993083S12181 1993 22 SP MM PREMA 1993-03-28 09:00:00 TS -15.2933 170.582 main 319 295 P_______P___P_ SH231993 -15.3075 170.515 85 2 -15.2650 170.715 67 967 -15.3075 170.515 TC 85 5 239
1993083S12181 1993 22 SP MM PREMA 1993-03-28 12:00:00 TS -15.4000 170.367 main 295 271 O_______O___O_ jtwc_sh SH231993 -15.4000 170.300 95 2 -15.4000 170.500 70 965 -15.4000 170.300 TC 95 5 246
1993083S12181 1993 22 SP MM PREMA 1993-03-28 15:00:00 TS -15.4808 170.148 main 261 237 P_______P___P_ SH231993 -15.4925 170.065 102 3 -15.4574 170.315 72 962 -15.4925 170.065 TC 102 5 250
1993083S12181 1993 22 SP MM PREMA 1993-03-28 18:00:00 TS -15.5667 169.900 main 237 203 O_______O___O_ jtwc_sh SH231993 -15.6000 169.800 110 3 -15.5000 170.100 75 960 -15.6000 169.800 TC 110 6 250
1993083S12181 1993 22 SP MM PREMA 1993-03-28 21:00:00 TS -15.6700 169.602 main 203 169 P_______P___P_ SH231993 -15.7275 169.500 115 4 -15.5550 169.807 77 957 -15.7275 169.500 TC 115 6 245
1993083S12181 1993 22 SP MM PREMA 1993-03-29 00:00:00 TS -15.8333 169.300 main 169 140 O_______O___O_ jtwc_sh SH231993 -15.9000 169.200 120 4 -15.7000 169.500 80 955 -15.9000 169.200 TC 120 7 232
1993083S12181 1993 22 SP MM PREMA 1993-03-29 03:00:00 TS -16.0941 169.040 main 130 106 P_______P___P_ SH231993 -16.1274 168.942 122 4 -16.0275 169.235 82 950 -16.1274 168.942 TC 122 7 220
1993083S12181 1993 22 SP MM PREMA 1993-03-29 06:00:00 TS -16.4000 168.800 main 106 85 O_______O___O_ jtwc_sh SH231993 -16.4000 168.700 125 4 -16.4000 169.000 85 945 -16.4000 168.700 TC 125 7 219
1993083S12181 1993 22 SP MM PREMA 1993-03-29 09:00:00 TS -16.6683 168.562 main 85 62 P_______P___P_ SH231993 -16.6850 168.442 125 4 -16.6349 168.800 72 960 -16.6850 168.442 TC 125 7 218
1993083S12181 1993 22 SP MM PREMA 1993-03-29 12:00:00 TS -16.9667 168.333 main 69 69 O_______O___O_ jtwc_sh SH231993 -17.0000 168.200 125 4 -16.9000 168.600 60 975 -17.0000 168.200 TC 125 8 213
1993083S12181 1993 22 SP MM PREMA 1993-03-29 15:00:00 TS -17.3300 168.104 main 84 84 P_______P___P_ SH231993 -17.3350 167.985 125 4 -17.3200 168.343 75 957 -17.3350 167.985 TC 125 9 208
1993083S12181 1993 22 SP MM PREMA 1993-03-29 18:00:00 TS -17.7333 167.900 main 123 123 O_______O___O_ jtwc_sh SH231993 -17.7000 167.800 125 4 -17.8000 168.100 90 940 -17.7000 167.800 TC 125 9 204
1993083S12181 1993 22 SP MM PREMA 1993-03-29 21:00:00 TS -18.1450 167.725 main 168 168 P_______P___P_ SH231993 -18.0925 167.628 125 4 -18.2500 167.920 90 940 -18.0925 167.628 TC 125 9 199
1993083S12181 1993 22 SP MM PREMA 1993-03-30 00:00:00 TS -18.5667 167.600 main 224 224 O_______O___O_ jtwc_sh SH231993 -18.5000 167.500 125 4 -18.7000 167.800 90 940 -18.5000 167.500 TC 125 9 195
1993083S12181 1993 22 SP MM PREMA 1993-03-30 03:00:00 TS -18.9758 167.490 main 268 268 P_______P___P_ SH231993 -18.8849 167.390 125 4 -19.1574 167.690 90 940 -18.8849 167.390 TC 125 8 187
1993083S12181 1993 22 SP MM PREMA 1993-03-30 06:00:00 TS -19.4000 167.500 main 276 245 O_______O___O_ jtwc_sh SH231993 -19.3000 167.400 125 4 -19.6000 167.700 90 940 -19.3000 167.400 TC 125 9 169
1993083S12181 1993 22 SP MM PREMA 1993-03-30 09:00:00 TS -19.8666 167.677 main 242 220 P_______P___P_ SH231993 -19.7999 167.575 125 4 -20.0000 167.883 90 940 -19.7999 167.575 TC 125 11 153
1993083S12181 1993 22 SP MM PREMA 1993-03-30 12:00:00 TS -20.3333 168.000 main 228 213 O_______O___O_ jtwc_sh SH231993 -20.3000 167.900 125 4 -20.4000 168.200 90 940 -20.3000 167.900 TC 125 11 143
1993083S12181 1993 22 SP MM PREMA 1993-03-30 15:00:00 TS -20.7599 168.389 main 212 212 P_______P___P_ SH231993 -20.7074 168.298 122 4 -20.8650 168.570 90 940 -20.7074 168.298 TC 122 12 136
1993083S12181 1993 22 SP MM PREMA 1993-03-30 18:00:00 TS -21.1667 168.867 main 225 225 O_______O___O_ jtwc_sh SH231993 -21.1000 168.800 120 4 -21.3000 169.000 90 940 -21.1000 168.800 TC 120 12 131
1993083S12181 1993 22 SP MM PREMA 1993-03-30 21:00:00 TS -21.5461 169.350 main 259 256 P_______P___P_ SH231993 -21.5271 169.341 117 4 -21.5841 169.369 87 942 -21.5271 169.341 TC 117 13 128
1993083S12181 1993 22 SP MM PREMA 1993-03-31 00:00:00 TS -21.9667 169.967 main 309 309 O_______O___O_ jtwc_sh SH231993 -22.0000 170.000 115 4 -21.9000 169.900 85 945 -22.0000 170.000 TC 115 17 126
1993083S12181 1993 22 SP MM PREMA 1993-03-31 03:00:00 TS -22.5118 170.792 main 391 391 P_______P___P_ SH231993 -22.5498 170.797 110 3 -22.4357 170.781 82 950 -22.5498 170.797 TC 110 20 124
1993083S12181 1993 22 SP MM PREMA 1993-03-31 06:00:00 TS -23.0667 171.733 main 490 490 O_______O___O_ jtwc_sh SH231993 -23.1000 171.700 105 3 -23.0000 171.800 80 955 -23.1000 171.700 TC 105 20 121
1993083S12181 1993 22 SP MM PREMA 1993-03-31 09:00:00 TS -23.5142 172.640 main 588 588 P_______P___P_ SH231993 -23.5644 172.621 97 3 -23.4138 172.679 77 957 -23.5644 172.621 TC 97 19 117
1993083S12181 1993 22 SP MM PREMA 1993-03-31 12:00:00 TS -23.9333 173.600 main 697 697 O_______O___O_ jtwc_sh SH231993 -24.0000 173.600 90 2 -23.8000 173.600 75 960 -24.0000 173.600 TC 90 20 115
1993083S12181 1993 22 SP MM PREMA 1993-03-31 15:00:00 TS -24.3908 174.662 main 754 750 P_______P___P_ SH231993 -24.4571 174.635 85 2 -24.2582 174.714 72 962 -24.4571 174.635 TC 85 21 115
1993083S12181 1993 22 SP MM PREMA 1993-03-31 18:00:00 TS -24.8333 175.733 main 761 761 O_______O___O_ jtwc_sh SH231993 -24.9000 175.700 80 1 -24.7000 175.800 70 965 -24.9000 175.700 TC 80 20 115
1993083S12181 1993 22 SP MM PREMA 1993-03-31 21:00:00 TS -25.2328 176.693 main 781 781 P_______P___P_ SH231993 -25.3139 176.736 75 1 -25.0706 176.609 65 970 -25.3139 176.736 TC 75 19 114
1993083S12181 1993 22 SP MM PREMA 1993-04-01 00:00:00 TS -25.6000 177.667 60 975 wellington main 816 816 O_______O___O_ jtwc_sh SH231993 -25.7000 177.800 70 1 -25.4000 177.400 60 975 -25.7000 177.800 TC 70 20 111
1993083S12181 1993 22 SP MM PREMA 1993-04-01 03:00:00 TS -25.9297 178.730 main 851 851 P_______P___P_ SH231993 -26.0491 178.921 65 1 -25.6908 178.347 57 977 -26.0491 178.921 TC 65 21 108
1993083S12181 1993 22 SP MM PREMA 1993-04-01 06:00:00 ET -26.2400 179.860 55 980 wellington main 900 900 O_______O___O_ jtwc_sh SH231993 -26.4000 -179.900 60 0 -26.0000 179.500 55 980 -26.4000 -179.900 EX 60 22 107
1993083S12181 1993 22 SP MM PREMA 1993-04-01 09:00:00 ET -26.5907 181.114 main 974 974 P_______P___P_ SH231993 -26.7898 -178.667 55 0 -26.3916 -179.105 47 985 -26.7898 -178.667 EX 55 25 106
1993083S12181 1993 22 SP MM PREMA 1993-04-01 12:00:00 ET -26.9333 182.533 40 990 wellington main 1057 1057 O_______O___O_ jtwc_sh SH231993 -27.2000 -177.400 50 0 -26.8000 -177.500 40 990 -27.2000 -177.400 EX 50 29 101
1993083S12181 1993 22 SP MM PREMA 1993-04-01 15:00:00 NR -27.1355 184.252 main 1158 1158 ________P_____ SH231993 -1 -27.1355 -175.748 37 992 EX 31 100
1993083S12181 1993 22 SP MM PREMA 1993-04-01 18:00:00 NR -27.5000 186.000 35 995 wellington main 1288 1288 ________O_____ -1 -27.5000 -174.000 35 995 31 106
1993083S12181 1993 22 SP MM PREMA 1993-04-01 21:00:00 NR -27.9765 187.605 main 1367 1367 ________P_____ -1 -27.9765 -172.395 32 996 28 111
1993083S12181 1993 22 SP MM PREMA 1993-04-02 00:00:00 NR -28.5000 189.000 30 997 wellington main 1407 1405 ________O_____ -1 -28.5000 -171.000 30 997 25 115
1993083S12181 1993 22 SP MM PREMA 1993-04-02 03:00:00 NR -29.0202 190.133 main 1439 1438 ________P_____ -1 -29.0202 -169.867 30 997 21 119
1993083S12181 1993 22 SP MM PREMA 1993-04-02 06:00:00 NR -29.5000 191.100 30 997 wellington main 1470 1470 ________O_____ -1 -29.5000 -168.900 30 997 19 117
1993083S12181 1993 22 SP MM PREMA 1993-04-02 09:00:00 NR -29.8713 192.059 main 1515 1515 ________P_____ -1 -29.8713 -167.941 30 997 18 113
1993083S12181 1993 22 SP MM PREMA 1993-04-02 12:00:00 NR -30.2000 193.000 30 997 wellington main 1564 1564 ________O_____ -1 -30.2000 -167.000 30 997 18 113
1993083S12181 1993 22 SP MM PREMA 1993-04-02 15:00:00 NR -30.5719 193.992 main 1617 1617 ________P_____ -1 -30.5719 -166.008 27 998 19 112
1993083S12181 1993 22 SP MM PREMA 1993-04-02 18:00:00 NR -30.9000 195.000 25 1000 wellington main 1680 1680 ________O_____ -1 -30.9000 -165.000 25 1000 18 107
1993083S12181 1993 22 SP MM PREMA 1993-04-02 21:00:00 NR -31.1062 195.979 main 1750 1750 ________P_____ -1 -31.1062 -164.021 25 1002 18 103
1993083S12181 1993 22 SP MM PREMA 1993-04-03 00:00:00 NR -31.3000 197.000 25 1005 wellington main 1823 1823 ________O_____ -1 -31.3000 -163.000 25 1005 19 105
1993083S12181 1993 22 SP MM PREMA 1993-04-03 03:00:00 NR -31.5924 198.142 main 1900 1900 ________P_____ -1 -31.5924 -161.858 25 1005 20 107
1993083S12181 1993 22 SP MM PREMA 1993-04-03 06:00:00 NR -31.9000 199.300 25 1005 wellington main 1988 1988 ________O_____ -1 -31.9000 -160.700 25 1005 20 107
1993083S12181 1993 22 SP MM PREMA 1993-04-03 09:00:00 NR -32.1643 200.388 main 2069 2069 ________P_____ -1 -32.1643 -159.612 25 1005 18 106
1993083S12181 1993 22 SP MM PREMA 1993-04-03 12:00:00 NR -32.4000 201.400 25 1005 wellington main 2147 2147 ________O_____ -1 -32.4000 -158.600 25 1005 17 106
1993083S12181 1993 22 SP MM PREMA 1993-04-03 15:00:00 NR -32.6213 202.323 main 2217 2217 ________P_____ -1 -32.6213 -157.677 25 1005 16 105
1993083S12181 1993 22 SP MM PREMA 1993-04-03 18:00:00 NR -32.8000 203.200 25 1005 wellington main 2287 2287 ________O_____ -1 -32.8000 -156.800 25 1005 15 102
1993083S12181 1993 22 SP MM PREMA 1993-04-03 21:00:00 NR -32.9281 204.048 main 2353 2353 ________P_____ -1 -32.9281 -155.952 25 1005 15 98
1993083S12181 1993 22 SP MM PREMA 1993-04-04 00:00:00 NR -33.0000 205.000 25 1005 wellington main 2436 2436 ________O_____ -1 -33.0000 -155.000 25 1005 18 93
1993083S12181 1993 22 SP MM PREMA 1993-04-04 03:00:00 NR -33.0152 206.198 main 2541 2541 ________P_____ -1 -33.0152 -153.802 25 1003 21 90
1993083S12181 1993 22 SP MM PREMA 1993-04-04 06:00:00 NR -33.0000 207.500 25 1002 wellington main 2655 2655 ________O_____ -1 -33.0000 -152.500 25 1002 21 88
1993083S12181 1993 22 SP MM PREMA 1993-04-04 09:00:00 NR -32.9376 208.716 main 2764 2764 ________P_____ -1 -32.9376 -151.284 25 1001 21 90
1993083S12181 1993 22 SP MM PREMA 1993-04-04 12:00:00 NR -33.0000 210.000 25 1000 wellington main 2875 2875 ________O_____ -1 -33.0000 -150.000 25 1000 23 99
1993083S12181 1993 22 SP MM PREMA 1993-04-04 15:00:00 NR -33.3066 211.389 main 2987 2987 ________P_____ -1 -33.3066 -148.611 25 1000 26 108
1993083S12181 1993 22 SP MM PREMA 1993-04-04 18:00:00 NR -33.8000 213.000 25 1000 wellington main 3109 3109 ________O_____ -1 -33.8000 -147.000 25 1000 32 109
1993083S12181 1993 22 SP MM PREMA 1993-04-04 21:00:00 NR -34.3589 215.014 main 3264 3264 ________P_____ -1 -34.3589 -144.986 25 1000 35 110
1993083S12181 1993 22 SP MM PREMA 1993-04-05 00:00:00 NR -35.0000 217.000 25 1000 wellington main 3419 3419 ________O_____ -1 -35.0000 -143.000 25 1000 31 116
1993083S12181 1993 22 SP MM PREMA 1993-04-05 03:00:00 NR -35.7095 218.399 main 3519 3519 ________P_____ -1 -35.7095 -141.601 25 999 25 127
1993083S12181 1993 22 SP MM PREMA 1993-04-05 06:00:00 NR -36.4859 219.419 main 3582 3582 ________P_____ -1 -36.4859 -140.581 25 999 21 137
1993083S12181 1993 22 SP MM PREMA 1993-04-05 09:00:00 NR -37.2711 220.229 main 3629 3629 ________P_____ -1 -37.2711 -139.771 25 999 20 140
1993083S12181 1993 22 SP MM PREMA 1993-04-05 12:00:00 NR -38.0000 221.000 25 999 wellington main 3679 3679 ________O_____ -1 -38.0000 -139.000 25 999 19 136
1993083S12181 1993 22 SP MM PREMA 1993-04-05 15:00:00 NR -38.6192 221.873 main 3741 3738 ________P_____ -1 -38.6192 -138.127 25 998 18 128
1993083S12181 1993 22 SP MM PREMA 1993-04-05 18:00:00 NR -39.1399 222.852 main 3813 3776 ________P_____ -1 -39.1399 -137.148 25 998 18 122
1993083S12181 1993 22 SP MM PREMA 1993-04-05 21:00:00 NR -39.5904 223.905 main 3775 3723 ________P_____ -1 -39.5904 -136.095 25 998 19 117
1993083S12181 1993 22 SP MM PREMA 1993-04-06 00:00:00 NR -40.0000 225.000 25 998 wellington main 3723 ________O_____ -1 -40.0000 -135.000 25 998 19 116

Digital Typhoon Data and Search

About IBTrACS Database

This database is a web-friendly format of International Best Track Archive for Climate Stewardship (IBTrACS), a global best track data archive curated by NOAA dating back to 1842.

Updated: 2021-10-08